Cold Ash, United Kingdom
Current Conditions -  °F | °C
As of 6:50 PM on Thursday 18 Dec 2014 (Local Time) from EGUB Reporting Station
Overcast Overcast  
Wind Chill: 55°   Ceiling: 1300
Heat Index: 55°   Visibility: 6mi
Dew Point: 50°   Wind: 17mph
Humidity: 82%   Direction: 220°SW
Pressure: 29.83"   Gusts: NA
Location:  51.42°N, 1.26°W
Report Text: EGUB 181850Z 22015KT 9999 BKN013 OVC020 13/10 Q1010 GRN
Loading
Personal Weather Stations






























Interactive Weather Map New forecast layout! Learn more

10-Day Weather Forecast

Advertisements
Track Severe Weather on mobile